Terminal Aerodrome Forecast
Issued by NWS

Home | Current Version | Previous Version | Text Only | Print | Product List | Glossary On
Versions: 1 2 3 4 5 6 7 8 9 10 11 12 13 14 15 16
313
FTUS44 KOHX 131722
TAFCKV
TAF
KCKV 131722Z 1318/1418 35009G16KT P6SM SCT250
     FM140100 VRB04KT P6SM OVC100
     FM140600 08006KT P6SM OVC070
     FM141300 12010KT P6SM OVC035
     FM141600 15012KT P6SM -SHSN OVC025=

USA.gov is the U.S. government's official web portal to all federal, state and local government web resources and services.